Historique des mesures à Cassis (13260), France
Quotidien Résumé Avril 14, 2018 Unités:  Métrique    US   Métrique/US
« Précédent (Jour)
Suivant (Jour) »
Quotidien Hebdomadaire Mensuel Annuel Période au choix
  Maximum: Minimum: Moyenne:
Température: TemperatureC °C 13.6 °C 16.1 °C
Point de rosée: DewpointC °C 7.4 °C 8.6 °C
Humidité: Humidity % 48 % 58 %
Vitesse du vent: 0 km/h 0 km/h 7.4 km/h
Rafales: 0 km/h - -
Vent:- - SE
Pression: PressurehPa hPa 1010.7 hPa -
Précipitations: 0.0 mm    
Historical Graphs
 
 
Mesures pour : Avril 14, 2018
Heure Temperature Point de rosée Pression Vent Vitesse du vent Rafales Humidité Pluie (par heure) Conditions
TemperatureC °C DewpointC °C PressurehPa hPa Calm     Humidity % HourlyPrecipMM mm SoftwareType W/m2
00:12 14.1 °C 9.3 °C 1012.8 hPa SSW 4.2 km/h 13.2 km/h 73 % 0.0 mm open2300-1.11 W/m2
01:11 14.4 °C 8.8 °C 1012.8 hPa ESE 5.1 km/h 5.6 km/h 69 % 0.0 mm open2300-1.11 W/m2
02:11 14.6 °C 8.5 °C 1013.4 hPa NNE 20.3 km/h 20.3 km/h 67 % 0.0 mm open2300-1.11 W/m2
03:12 14.1 °C 8.4 °C 1013.4 hPa Calm     69 % 0.0 mm open2300-1.11 W/m2
04:11 13.6 °C 8.4 °C 1013.4 hPa NE 2.9 km/h 2.9 km/h 71 % 0.0 mm open2300-1.11 W/m2
05:11 13.6 °C 8.4 °C 1013.1 hPa Calm   2.3 km/h 71 % 0.0 mm open2300-1.11 W/m2
06:11 13.8 °C 8.2 °C 1012.8 hPa NE 15.6 km/h 15.6 km/h 69 % 0.0 mm open2300-1.11 W/m2
07:10 13.8 °C 7.5 °C 1012.8 hPa NNE 3.4 km/h 9.3 km/h 66 % 0.0 mm open2300-1.11 W/m2
08:12 15.1 °C 7.4 °C 1012.1 hPa ENE 8 km/h 20.3 km/h 60 % 0.0 mm open2300-1.11 W/m2
09:12 15.8 °C 8.1 °C 1012.1 hPa SE 4.2 km/h 8 km/h 60 % 0.0 mm open2300-1.11 W/m2
10:12 16.7 °C 8.4 °C 1012.4 hPa ENE 6.4 km/h 8 km/h 58 % 0.0 mm open2300-1.11 W/m2
11:12 17.4 °C 8.2 °C 1012.8 hPa Calm   11.6 km/h 55 % 0.0 mm open2300-1.11 W/m2
12:12 18.5 °C 8.4 °C 1012.8 hPa ESE 4.7 km/h 9.8 km/h 52 % 0.0 mm open2300-1.11 W/m2
13:11 19.2 °C 8.8 °C 1012.8 hPa ESE 1.8 km/h 9.8 km/h 51 % 0.0 mm open2300-1.11 W/m2
14:12 21.0 °C 9.9 °C 1012.1 hPa Calm   5.1 km/h 49 % 0.0 mm open2300-1.11 W/m2
15:11 21.5 °C 10.3 °C 1012.8 hPa Calm   4.7 km/h 49 % 0.0 mm open2300-1.11 W/m2
16:11 20.8 °C 9.3 °C 1011.4 hPa WSW 18.7 km/h 19.6 km/h 48 % 0.0 mm open2300-1.11 W/m2
17:11 20.2 °C 9.5 °C 1011.1 hPa WSW 10.3 km/h 13.2 km/h 50 % 0.0 mm open2300-1.11 W/m2
18:11 19.8 °C 10.4 °C 1010.7 hPa West 15 km/h 15 km/h 55 % 0.0 mm open2300-1.11 W/m2
19:11 18.5 °C 10.8 °C 1011.1 hPa West 23 km/h 23 km/h 61 % 0.0 mm open2300-1.11 W/m2
20:10 17.4 °C 10.3 °C 1011.1 hPa WNW 16.3 km/h 16.3 km/h 63 % 0.0 mm open2300-1.11 W/m2
22:10 15.8 °C 9.7 °C 1011.7 hPa NNW 10.3 km/h 10.3 km/h 67 % 0.0 mm open2300-1.11 W/m2
23:10 15.6 °C 10.0 °C 1011.1 hPa North 6.4 km/h 6.4 km/h 69 % 0.0 mm open2300-1.11 W/m2
Observations météo à CASSIS
WU-History script by Weather Underground - 1 mb